sensor_id;sensor_type;location;lat;lon;timestamp;pressure;altitude;pressure_sealevel;temperature;humidity
25947;BME280;13745;51.470;9.894;2023-07-02T00:02:40;98406.56;;;16.98;92.40
25947;BME280;13745;51.470;9.894;2023-07-02T00:05:25;98406.63;;;16.96;92.36
25947;BME280;13745;51.470;9.894;2023-07-02T00:08:10;98391.00;;;16.95;92.27
25947;BME280;13745;51.470;9.894;2023-07-02T00:10:55;98395.47;;;16.93;92.39
25947;BME280;13745;51.470;9.894;2023-07-02T00:13:40;98391.19;;;16.92;92.21
25947;BME280;13745;51.470;9.894;2023-07-02T00:16:26;98395.56;;;16.91;92.44
25947;BME280;13745;51.470;9.894;2023-07-02T00:19:11;98400.06;;;16.89;92.34
25947;BME280;13745;51.470;9.894;2023-07-02T00:21:58;98394.97;;;16.86;92.53
25947;BME280;13745;51.470;9.894;2023-07-02T00:24:43;98395.06;;;16.84;92.53
25947;BME280;13745;51.470;9.894;2023-07-02T00:27:28;98396.91;;;16.82;92.60
25947;BME280;13745;51.470;9.894;2023-07-02T00:30:14;98397.00;;;16.81;92.64
25947;BME280;13745;51.470;9.894;2023-07-02T00:33:00;98402.25;;;16.81;92.63
25947;BME280;13745;51.470;9.894;2023-07-02T00:35:45;98397.06;;;16.79;92.71
25947;BME280;13745;51.470;9.894;2023-07-02T00:38:30;98404.03;;;16.80;92.83
25947;BME280;13745;51.470;9.894;2023-07-02T00:41:16;98404.88;;;16.81;92.74
25947;BME280;13745;51.470;9.894;2023-07-02T00:44:01;98400.47;;;16.81;92.85
25947;BME280;13745;51.470;9.894;2023-07-02T00:46:46;98411.78;;;16.82;92.70
25947;BME280;13745;51.470;9.894;2023-07-02T00:49:32;98406.47;;;16.83;92.87
25947;BME280;13745;51.470;9.894;2023-07-02T00:52:17;98405.53;;;16.84;92.72
25947;BME280;13745;51.470;9.894;2023-07-02T00:55:04;98402.81;;;16.86;92.82
25947;BME280;13745;51.470;9.894;2023-07-02T00:57:50;98401.03;;;16.87;92.93
25947;BME280;13745;51.470;9.894;2023-07-02T01:00:35;98402.91;;;16.84;92.99
25947;BME280;13745;51.470;9.894;2023-07-02T01:03:20;98397.69;;;16.84;93.02
25947;BME280;13745;51.470;9.894;2023-07-02T01:06:06;98401.13;;;16.85;93.08
25947;BME280;13745;51.470;9.894;2023-07-02T01:08:54;98406.38;;;16.85;93.10
25947;BME280;13745;51.470;9.894;2023-07-02T01:11:42;98398.59;;;16.83;93.19
25947;BME280;13745;51.470;9.894;2023-07-02T01:14:31;98409.84;;;16.85;93.45
25947;BME280;13745;51.470;9.894;2023-07-02T01:17:18;98408.16;;;16.84;93.41
25947;BME280;13745;51.470;9.894;2023-07-02T01:20:07;98401.97;;;16.85;92.93
25947;BME280;13745;51.470;9.894;2023-07-02T01:22:53;98408.16;;;16.84;93.50
25947;BME280;13745;51.470;9.894;2023-07-02T01:25:38;98405.53;;;16.84;93.28
25947;BME280;13745;51.470;9.894;2023-07-02T01:28:23;98406.38;;;16.85;93.48
25947;BME280;13745;51.470;9.894;2023-07-02T01:31:08;98407.41;;;16.82;93.37
25947;BME280;13745;51.470;9.894;2023-07-02T01:33:53;98403.00;;;16.83;93.36
25947;BME280;13745;51.470;9.894;2023-07-02T01:36:40;98401.22;;;16.83;93.42
25947;BME280;13745;51.470;9.894;2023-07-02T01:39:25;98404.69;;;16.84;93.46
25947;BME280;13745;51.470;9.894;2023-07-02T01:42:12;98405.63;;;16.83;93.04
25947;BME280;13745;51.470;9.894;2023-07-02T01:44:59;98413.47;;;16.83;93.20
25947;BME280;13745;51.470;9.894;2023-07-02T01:47:44;98408.22;;;16.83;93.04
25947;BME280;13745;51.470;9.894;2023-07-02T01:50:29;98411.78;;;16.82;93.06
25947;BME280;13745;51.470;9.894;2023-07-02T01:53:16;98409.91;;;16.84;92.87
25947;BME280;13745;51.470;9.894;2023-07-02T01:56:01;98415.16;;;16.84;92.92
25947;BME280;13745;51.470;9.894;2023-07-02T01:58:46;98425.63;;;16.84;92.91
25947;BME280;13745;51.470;9.894;2023-07-02T02:01:31;98428.25;;;16.84;92.87
25947;BME280;13745;51.470;9.894;2023-07-02T02:04:17;98427.41;;;16.83;92.75
25947;BME280;13745;51.470;9.894;2023-07-02T02:07:03;98419.63;;;16.82;92.90
25947;BME280;13745;51.470;9.894;2023-07-02T02:09:51;98432.72;;;16.82;92.82
25947;BME280;13745;51.470;9.894;2023-07-02T02:12:37;98430.19;;;16.80;92.76
25947;BME280;13745;51.470;9.894;2023-07-02T02:15:24;98428.41;;;16.81;92.84
25947;BME280;13745;51.470;9.894;2023-07-02T02:18:10;98423.25;;;16.79;92.66
25947;BME280;13745;51.470;9.894;2023-07-02T02:20:55;98431.09;;;16.79;92.83
25947;BME280;13745;51.470;9.894;2023-07-02T02:23:40;98429.41;;;16.78;92.94
25947;BME280;13745;51.470;9.894;2023-07-02T02:26:26;98423.34;;;16.78;92.81
25947;BME280;13745;51.470;9.894;2023-07-02T02:29:11;98429.59;;;16.75;92.93
25947;BME280;13745;51.470;9.894;2023-07-02T02:31:56;98431.34;;;16.75;92.82
25947;BME280;13745;51.470;9.894;2023-07-02T02:34:42;98435.84;;;16.73;92.79
25947;BME280;13745;51.470;9.894;2023-07-02T02:37:27;98428.03;;;16.71;92.76
25947;BME280;13745;51.470;9.894;2023-07-02T02:40:15;98436.78;;;16.72;92.56
25947;BME280;13745;51.470;9.894;2023-07-02T02:43:01;98432.38;;;16.72;92.72
25947;BME280;13745;51.470;9.894;2023-07-02T02:45:46;98433.28;;;16.71;92.46
25947;BME280;13745;51.470;9.894;2023-07-02T02:48:32;98435.91;;;16.71;92.51
25947;BME280;13745;51.470;9.894;2023-07-02T02:51:17;98426.31;;;16.72;92.53
25947;BME280;13745;51.470;9.894;2023-07-02T02:54:02;98427.19;;;16.71;92.39
25947;BME280;13745;51.470;9.894;2023-07-02T02:56:47;98433.28;;;16.71;92.48
25947;BME280;13745;51.470;9.894;2023-07-02T02:59:33;98431.53;;;16.72;92.59
25947;BME280;13745;51.470;9.894;2023-07-02T03:02:18;98428.03;;;16.71;92.41
25947;BME280;13745;51.470;9.894;2023-07-02T03:05:04;98434.22;;;16.70;92.31
25947;BME280;13745;51.470;9.894;2023-07-02T03:07:50;98438.59;;;16.70;92.22
25947;BME280;13745;51.470;9.894;2023-07-02T03:10:35;98437.75;;;16.69;92.34
25947;BME280;13745;51.470;9.894;2023-07-02T03:13:21;98435.13;;;16.69;92.34
25947;BME280;13745;51.470;9.894;2023-07-02T03:16:07;98436.91;;;16.69;92.37
25947;BME280;13745;51.470;9.894;2023-07-02T03:18:52;98444.81;;;16.67;92.22
25947;BME280;13745;51.470;9.894;2023-07-02T03:21:37;98445.66;;;16.68;92.19
25947;BME280;13745;51.470;9.894;2023-07-02T03:24:22;98449.22;;;16.67;91.96
25947;BME280;13745;51.470;9.894;2023-07-02T03:27:07;98439.59;;;16.67;92.04
25947;BME280;13745;51.470;9.894;2023-07-02T03:29:52;98441.28;;;16.68;92.01
25947;BME280;13745;51.470;9.894;2023-07-02T03:32:39;98441.38;;;16.67;91.89
25947;BME280;13745;51.470;9.894;2023-07-02T03:35:24;98433.50;;;16.67;92.06
25947;BME280;13745;51.470;9.894;2023-07-02T03:38:09;98422.44;;;16.62;91.99
25947;BME280;13745;51.470;9.894;2023-07-02T03:40:53;98429.63;;;16.58;92.02
25947;BME280;13745;51.470;9.894;2023-07-02T03:43:39;98416.63;;;16.56;91.86
25947;BME280;13745;51.470;9.894;2023-07-02T03:46:24;98406.25;;;16.55;91.75
25947;BME280;13745;51.470;9.894;2023-07-02T03:49:10;98410.59;;;16.54;91.81
25947;BME280;13745;51.470;9.894;2023-07-02T03:51:56;98417.59;;;16.54;91.86
25947;BME280;13745;51.470;9.894;2023-07-02T03:54:41;98426.47;;;16.51;91.81
25947;BME280;13745;51.470;9.894;2023-07-02T03:57:25;98424.78;;;16.50;91.72
25947;BME280;13745;51.470;9.894;2023-07-02T04:00:11;98424.69;;;16.52;91.61
25947;BME280;13745;51.470;9.894;2023-07-02T04:02:59;98435.16;;;16.52;91.55
25947;BME280;13745;51.470;9.894;2023-07-02T04:05:47;98434.41;;;16.50;91.35
25947;BME280;13745;51.470;9.894;2023-07-02T04:08:32;98432.53;;;16.52;91.21
25947;BME280;13745;51.470;9.894;2023-07-02T04:11:18;98432.53;;;16.52;91.06
25947;BME280;13745;51.470;9.894;2023-07-02T04:14:03;98436.09;;;16.51;91.07
25947;BME280;13745;51.470;9.894;2023-07-02T04:16:48;98429.94;;;16.52;90.94
25947;BME280;13745;51.470;9.894;2023-07-02T04:19:33;98436.19;;;16.49;90.93
25947;BME280;13745;51.470;9.894;2023-07-02T04:22:19;98435.34;;;16.49;91.00
25947;BME280;13745;51.470;9.894;2023-07-02T04:25:05;98451.78;;;16.51;91.06
25947;BME280;13745;51.470;9.894;2023-07-02T04:27:50;98449.09;;;16.52;91.20
25947;BME280;13745;51.470;9.894;2023-07-02T04:30:40;98450.88;;;16.52;91.27
25947;BME280;13745;51.470;9.894;2023-07-02T04:33:25;98457.88;;;16.51;91.29
25947;BME280;13745;51.470;9.894;2023-07-02T04:36:16;98460.47;;;16.51;91.11
25947;BME280;13745;51.470;9.894;2023-07-02T04:39:02;98470.88;;;16.53;91.28
25947;BME280;13745;51.470;9.894;2023-07-02T04:41:48;98469.09;;;16.53;91.25
25947;BME280;13745;51.470;9.894;2023-07-02T04:44:36;98473.25;;;16.57;91.18
25947;BME280;13745;51.470;9.894;2023-07-02T04:47:21;98478.22;;;16.62;91.22
25947;BME280;13745;51.470;9.894;2023-07-02T04:50:07;98492.78;;;16.68;91.16
25947;BME280;13745;51.470;9.894;2023-07-02T04:52:52;98490.84;;;16.71;91.11
25947;BME280;13745;51.470;9.894;2023-07-02T04:55:38;98496.88;;;16.73;91.11
25947;BME280;13745;51.470;9.894;2023-07-02T04:58:23;98497.63;;;16.75;91.14
25947;BME280;13745;51.470;9.894;2023-07-02T05:01:09;98495.69;;;16.79;91.18
25947;BME280;13745;51.470;9.894;2023-07-02T05:03:53;98500.78;;;16.82;90.83
25947;BME280;13745;51.470;9.894;2023-07-02T05:06:39;98495.28;;;16.87;90.80
25947;BME280;13745;51.470;9.894;2023-07-02T05:09:24;98491.69;;;16.89;90.55
25947;BME280;13745;51.470;9.894;2023-07-02T05:12:10;98494.22;;;16.91;90.54
25947;BME280;13745;51.470;9.894;2023-07-02T05:14:55;98500.19;;;16.93;90.52
25947;BME280;13745;51.470;9.894;2023-07-02T05:17:40;98493.19;;;16.93;90.38
25947;BME280;13745;51.470;9.894;2023-07-02T05:20:25;98500.03;;;16.96;90.43
25947;BME280;13745;51.470;9.894;2023-07-02T05:23:10;98505.22;;;16.97;90.27
25947;BME280;13745;51.470;9.894;2023-07-02T05:25:55;98502.59;;;16.97;90.17
25947;BME280;13745;51.470;9.894;2023-07-02T05:28:42;98485.16;;;16.96;90.12
25947;BME280;13745;51.470;9.894;2023-07-02T05:31:28;98488.66;;;16.97;90.07
25947;BME280;13745;51.470;9.894;2023-07-02T05:34:13;98485.94;;;16.98;89.93
25947;BME280;13745;51.470;9.894;2023-07-02T05:36:58;98481.66;;;16.97;89.79
25947;BME280;13745;51.470;9.894;2023-07-02T05:39:43;98477.25;;;16.98;89.93
25947;BME280;13745;51.470;9.894;2023-07-02T05:42:28;98495.31;;;17.02;89.64
25947;BME280;13745;51.470;9.894;2023-07-02T05:45:14;98497.84;;;17.04;89.59
25947;BME280;13745;51.470;9.894;2023-07-02T05:48:01;98503.03;;;17.05;89.32
25947;BME280;13745;51.470;9.894;2023-07-02T05:50:46;98506.22;;;17.10;89.23
25947;BME280;13745;51.470;9.894;2023-07-02T05:53:31;98510.53;;;17.11;89.00
25947;BME280;13745;51.470;9.894;2023-07-02T05:56:16;98513.22;;;17.10;88.98
25947;BME280;13745;51.470;9.894;2023-07-02T05:59:01;98516.78;;;17.09;88.93
25947;BME280;13745;51.470;9.894;2023-07-02T06:01:47;98516.03;;;17.07;88.74
25947;BME280;13745;51.470;9.894;2023-07-02T06:04:32;98528.00;;;17.11;88.96
25947;BME280;13745;51.470;9.894;2023-07-02T06:07:17;98529.69;;;17.12;88.73
25947;BME280;13745;51.470;9.894;2023-07-02T06:10:03;98533.03;;;17.16;88.77
25947;BME280;13745;51.470;9.894;2023-07-02T06:12:48;98527.88;;;17.14;88.59
25947;BME280;13745;51.470;9.894;2023-07-02T06:15:33;98537.31;;;17.17;88.48
25947;BME280;13745;51.470;9.894;2023-07-02T06:18:20;98540.63;;;17.20;88.26
25947;BME280;13745;51.470;9.894;2023-07-02T06:21:05;98533.53;;;17.22;88.24
25947;BME280;13745;51.470;9.894;2023-07-02T06:23:50;98536.16;;;17.22;88.11
25947;BME280;13745;51.470;9.894;2023-07-02T06:26:35;98540.47;;;17.23;87.98
25947;BME280;13745;51.470;9.894;2023-07-02T06:29:22;98541.13;;;17.27;87.97
25947;BME280;13745;51.470;9.894;2023-07-02T06:32:07;98547.06;;;17.30;87.78
25947;BME280;13745;51.470;9.894;2023-07-02T06:34:54;98540.63;;;17.36;87.85
25947;BME280;13745;51.470;9.894;2023-07-02T06:37:39;98554.53;;;17.38;87.74
25947;BME280;13745;51.470;9.894;2023-07-02T06:40:24;98546.38;;;17.42;87.76
25947;BME280;13745;51.470;9.894;2023-07-02T06:43:09;98554.59;;;17.52;87.64
25947;BME280;13745;51.470;9.894;2023-07-02T06:45:54;98550.63;;;17.61;87.21
25947;BME280;13745;51.470;9.894;2023-07-02T06:48:39;98554.47;;;17.71;87.33
25947;BME280;13745;51.470;9.894;2023-07-02T06:51:25;98555.72;;;17.80;87.05
25947;BME280;13745;51.470;9.894;2023-07-02T06:54:13;98548.09;;;17.91;86.77
25947;BME280;13745;51.470;9.894;2023-07-02T06:56:58;98565.69;;;18.05;86.18
25947;BME280;13745;51.470;9.894;2023-07-02T06:59:43;98559.19;;;18.26;85.95
25947;BME280;13745;51.470;9.894;2023-07-02T07:02:28;98559.28;;;18.55;85.11
25947;BME280;13745;51.470;9.894;2023-07-02T07:05:13;98560.63;;;18.76;84.43
25947;BME280;13745;51.470;9.894;2023-07-02T07:08:00;98562.72;;;18.99;83.87
25947;BME280;13745;51.470;9.894;2023-07-02T07:10:45;98551.75;;;19.07;83.65
25947;BME280;13745;51.470;9.894;2023-07-02T07:13:30;98565.38;;;19.14;83.47
25947;BME280;13745;51.470;9.894;2023-07-02T07:16:15;98562.91;;;19.11;83.13
25947;BME280;13745;51.470;9.894;2023-07-02T07:19:00;98562.25;;;19.07;82.97
25947;BME280;13745;51.470;9.894;2023-07-02T07:21:45;98572.78;;;19.07;82.68
25947;BME280;13745;51.470;9.894;2023-07-02T07:24:32;98578.97;;;19.06;82.29
25947;BME280;13745;51.470;9.894;2023-07-02T07:27:17;98568.72;;;19.01;81.71
25947;BME280;13745;51.470;9.894;2023-07-02T07:30:02;98564.41;;;19.00;81.56
25947;BME280;13745;51.470;9.894;2023-07-02T07:32:48;98571.66;;;18.97;80.56
25947;BME280;13745;51.470;9.894;2023-07-02T07:35:33;98584.97;;;19.08;79.92
25947;BME280;13745;51.470;9.894;2023-07-02T07:38:18;98574.00;;;19.16;79.73
25947;BME280;13745;51.470;9.894;2023-07-02T07:41:05;98579.97;;;19.18;79.24
25947;BME280;13745;51.470;9.894;2023-07-02T07:43:50;98591.44;;;19.17;78.56
25947;BME280;13745;51.470;9.894;2023-07-02T07:46:35;98583.66;;;19.15;78.42
25947;BME280;13745;51.470;9.894;2023-07-02T07:49:21;98573.16;;;19.29;77.36
25947;BME280;13745;51.470;9.894;2023-07-02T07:52:07;98580.56;;;19.37;77.11
25947;BME280;13745;51.470;9.894;2023-07-02T07:54:52;98590.13;;;19.38;77.42
25947;BME280;13745;51.470;9.894;2023-07-02T07:57:39;98594.81;;;19.33;76.24
25947;BME280;13745;51.470;9.894;2023-07-02T08:00:24;98597.91;;;19.25;75.81
25947;BME280;13745;51.470;9.894;2023-07-02T08:03:10;98601.78;;;19.20;75.48
25947;BME280;13745;51.470;9.894;2023-07-02T08:05:55;98602.78;;;19.17;74.87
25947;BME280;13745;51.470;9.894;2023-07-02T08:08:40;98598.50;;;19.30;74.95
25947;BME280;13745;51.470;9.894;2023-07-02T08:11:25;98604.13;;;19.39;73.98
25947;BME280;13745;51.470;9.894;2023-07-02T08:14:12;98609.47;;;19.37;73.53
25947;BME280;13745;51.470;9.894;2023-07-02T08:16:58;98615.75;;;19.49;72.77
25947;BME280;13745;51.470;9.894;2023-07-02T08:19:43;98617.06;;;19.70;72.11
25947;BME280;13745;51.470;9.894;2023-07-02T08:22:28;98627.66;;;19.83;71.74
25947;BME280;13745;51.470;9.894;2023-07-02T08:25:13;98620.59;;;19.83;71.65
25947;BME280;13745;51.470;9.894;2023-07-02T08:27:58;98627.47;;;19.86;70.84
25947;BME280;13745;51.470;9.894;2023-07-02T08:30:44;98627.47;;;19.86;70.09
25947;BME280;13745;51.470;9.894;2023-07-02T08:33:29;98632.16;;;19.81;69.87
25947;BME280;13745;51.470;9.894;2023-07-02T08:36:15;98639.75;;;19.85;69.27
25947;BME280;13745;51.470;9.894;2023-07-02T08:39:00;98633.41;;;20.02;69.02
25947;BME280;13745;51.470;9.894;2023-07-02T08:41:46;98632.06;;;20.24;68.72
25947;BME280;13745;51.470;9.894;2023-07-02T08:44:31;98641.03;;;20.34;68.12
25947;BME280;13745;51.470;9.894;2023-07-02T08:47:17;98636.94;;;20.30;67.84
25947;BME280;13745;51.470;9.894;2023-07-02T08:50:03;98640.19;;;20.33;67.79
25947;BME280;13745;51.470;9.894;2023-07-02T08:52:49;98638.84;;;20.40;67.76
25947;BME280;13745;51.470;9.894;2023-07-02T08:55:34;98651.56;;;20.34;67.29
25947;BME280;13745;51.470;9.894;2023-07-02T08:58:19;98640.41;;;20.30;68.12
25947;BME280;13745;51.470;9.894;2023-07-02T09:01:05;98646.00;;;20.38;67.89
25947;BME280;13745;51.470;9.894;2023-07-02T09:03:58;98637.44;;;20.35;67.47
25947;BME280;13745;51.470;9.894;2023-07-02T09:06:44;98648.94;;;20.34;67.75
25947;BME280;13745;51.470;9.894;2023-07-02T09:09:29;98647.13;;;20.48;67.70
25947;BME280;13745;51.470;9.894;2023-07-02T09:12:28;98645.78;;;20.68;66.71
25947;BME280;13745;51.470;9.894;2023-07-02T09:15:14;98642.47;;;20.92;66.60
25947;BME280;13745;51.470;9.894;2023-07-02T09:17:59;98644.38;;;21.15;66.94
25947;BME280;13745;51.470;9.894;2023-07-02T09:20:46;98643.03;;;21.22;66.16
25947;BME280;13745;51.470;9.894;2023-07-02T09:23:34;98648.50;;;21.19;65.64
25947;BME280;13745;51.470;9.894;2023-07-02T09:26:20;98630.47;;;21.26;65.67
25947;BME280;13745;51.470;9.894;2023-07-02T09:29:05;98635.47;;;21.43;65.64
25947;BME280;13745;51.470;9.894;2023-07-02T09:31:51;98636.63;;;21.52;65.25
25947;BME280;13745;51.470;9.894;2023-07-02T09:34:38;98644.75;;;21.36;65.10
25947;BME280;13745;51.470;9.894;2023-07-02T09:37:25;98646.28;;;21.13;65.38
25947;BME280;13745;51.470;9.894;2023-07-02T09:40:11;98655.63;;;20.92;65.14
25947;BME280;13745;51.470;9.894;2023-07-02T09:42:57;98654.91;;;20.77;65.50
25947;BME280;13745;51.470;9.894;2023-07-02T09:45:44;98661.69;;;20.67;65.42
25947;BME280;13745;51.470;9.894;2023-07-02T09:48:33;98658.88;;;20.70;65.61
25947;BME280;13745;51.470;9.894;2023-07-02T09:51:20;98656.88;;;20.73;65.92
25947;BME280;13745;51.470;9.894;2023-07-02T09:54:06;98650.56;;;20.76;65.99
25947;BME280;13745;51.470;9.894;2023-07-02T09:56:51;98660.97;;;20.65;65.43
25947;BME280;13745;51.470;9.894;2023-07-02T09:59:37;98657.25;;;20.55;65.38
25947;BME280;13745;51.470;9.894;2023-07-02T10:02:23;98661.69;;;20.54;65.42
25947;BME280;13745;51.470;9.894;2023-07-02T10:05:08;98669.25;;;20.59;65.87
25947;BME280;13745;51.470;9.894;2023-07-02T10:07:53;98660.84;;;20.54;65.81
25947;BME280;13745;51.470;9.894;2023-07-02T10:10:41;98670.94;;;20.47;65.63
25947;BME280;13745;51.470;9.894;2023-07-02T10:13:26;98672.63;;;20.48;66.20
25947;BME280;13745;51.470;9.894;2023-07-02T10:16:12;98666.28;;;20.78;65.09
25947;BME280;13745;51.470;9.894;2023-07-02T10:19:08;98659.88;;;21.07;64.11
25947;BME280;13745;51.470;9.894;2023-07-02T10:22:00;98664.63;;;21.15;63.99
25947;BME280;13745;51.470;9.894;2023-07-02T10:24:54;98665.25;;;21.06;63.21
25947;BME280;13745;51.470;9.894;2023-07-02T10:27:42;98668.63;;;20.95;63.58
25947;BME280;13745;51.470;9.894;2023-07-02T10:30:31;98669.31;;;20.84;62.86
25947;BME280;13745;51.470;9.894;2023-07-02T10:33:17;98673.75;;;20.84;63.01
25947;BME280;13745;51.470;9.894;2023-07-02T10:36:03;98675.97;;;20.90;63.00
25947;BME280;13745;51.470;9.894;2023-07-02T10:38:49;98663.56;;;21.04;62.10
25947;BME280;13745;51.470;9.894;2023-07-02T10:41:34;98667.59;;;21.10;62.08
25947;BME280;13745;51.470;9.894;2023-07-02T10:44:20;98672.69;;;21.39;61.65
25947;BME280;13745;51.470;9.894;2023-07-02T10:47:05;98665.50;;;21.53;61.16
25947;BME280;13745;51.470;9.894;2023-07-02T10:49:50;98666.78;;;21.61;60.49
25947;BME280;13745;51.470;9.894;2023-07-02T10:52:37;98674.47;;;21.51;60.58
25947;BME280;13745;51.470;9.894;2023-07-02T10:55:23;98668.13;;;21.66;59.67
25947;BME280;13745;51.470;9.894;2023-07-02T10:58:09;98673.34;;;21.92;59.28
25947;BME280;13745;51.470;9.894;2023-07-02T11:00:56;98674.06;;;22.19;59.44
25947;BME280;13745;51.470;9.894;2023-07-02T11:03:43;98672.56;;;22.28;59.24
25947;BME280;13745;51.470;9.894;2023-07-02T11:06:29;98675.03;;;22.18;59.25
25947;BME280;13745;51.470;9.894;2023-07-02T11:09:16;98679.91;;;22.11;59.42
25947;BME280;13745;51.470;9.894;2023-07-02T11:12:02;98688.41;;;22.15;59.79
25947;BME280;13745;51.470;9.894;2023-07-02T11:14:48;98688.66;;;22.12;59.93
25947;BME280;13745;51.470;9.894;2023-07-02T11:17:34;98693.72;;;22.02;59.45
25947;BME280;13745;51.470;9.894;2023-07-02T11:20:19;98696.03;;;22.20;58.82
25947;BME280;13745;51.470;9.894;2023-07-02T11:23:04;98677.84;;;22.52;58.49
25947;BME280;13745;51.470;9.894;2023-07-02T11:25:57;98685.97;;;22.73;58.76
25947;BME280;13745;51.470;9.894;2023-07-02T11:28:50;98692.72;;;22.77;58.49
25947;BME280;13745;51.470;9.894;2023-07-02T11:31:35;98693.31;;;22.80;58.73
25947;BME280;13745;51.470;9.894;2023-07-02T11:34:22;98698.72;;;23.03;58.31
25947;BME280;13745;51.470;9.894;2023-07-02T11:37:07;98694.69;;;23.32;58.56
25947;BME280;13745;51.470;9.894;2023-07-02T11:39:52;98689.53;;;23.31;57.98
25947;BME280;13745;51.470;9.894;2023-07-02T11:42:37;98682.88;;;23.25;57.91
25947;BME280;13745;51.470;9.894;2023-07-02T11:45:22;98685.19;;;23.18;58.17
25947;BME280;13745;51.470;9.894;2023-07-02T11:48:07;98698.28;;;23.09;58.75
25947;BME280;13745;51.470;9.894;2023-07-02T11:50:54;98693.38;;;22.91;58.50
25947;BME280;13745;51.470;9.894;2023-07-02T11:53:39;98701.34;;;22.67;59.19
25947;BME280;13745;51.470;9.894;2023-07-02T11:56:24;98707.66;;;22.41;58.95
25947;BME280;13745;51.470;9.894;2023-07-02T11:59:09;98710.50;;;22.14;59.68
25947;BME280;13745;51.470;9.894;2023-07-02T12:01:54;98714.31;;;21.97;59.90
25947;BME280;13745;51.470;9.894;2023-07-02T12:04:39;98714.72;;;21.91;59.46
25947;BME280;13745;51.470;9.894;2023-07-02T12:07:25;98714.13;;;21.87;59.58
25947;BME280;13745;51.470;9.894;2023-07-02T12:10:11;98723.19;;;21.83;60.05
25947;BME280;13745;51.470;9.894;2023-07-02T12:12:56;98717.53;;;21.77;59.70
25947;BME280;13745;51.470;9.894;2023-07-02T12:15:41;98716.56;;;21.78;59.75
25947;BME280;13745;51.470;9.894;2023-07-02T12:18:26;98717.78;;;21.98;60.02
25947;BME280;13745;51.470;9.894;2023-07-02T12:21:11;98722.94;;;22.25;59.66
25947;BME280;13745;51.470;9.894;2023-07-02T12:23:57;98714.59;;;22.55;59.13
25947;BME280;13745;51.470;9.894;2023-07-02T12:26:43;98717.06;;;22.69;58.25
25947;BME280;13745;51.470;9.894;2023-07-02T12:29:28;98714.91;;;22.74;58.27
25947;BME280;13745;51.470;9.894;2023-07-02T12:32:13;98705.03;;;22.65;57.99
25947;BME280;13745;51.470;9.894;2023-07-02T12:34:58;98708.78;;;22.50;58.67
25947;BME280;13745;51.470;9.894;2023-07-02T12:37:43;98711.94;;;22.31;58.50
25947;BME280;13745;51.470;9.894;2023-07-02T12:40:31;98711.13;;;22.05;58.69
25947;BME280;13745;51.470;9.894;2023-07-02T12:43:16;98723.19;;;21.83;59.08
25947;BME280;13745;51.470;9.894;2023-07-02T12:46:01;98722.16;;;21.73;58.51
25947;BME280;13745;51.470;9.894;2023-07-02T12:48:46;98720.25;;;21.75;58.67
25947;BME280;13745;51.470;9.894;2023-07-02T12:51:31;98709.88;;;21.98;58.46
25947;BME280;13745;51.470;9.894;2023-07-02T12:54:16;98726.25;;;22.03;58.15
25947;BME280;13745;51.470;9.894;2023-07-02T12:57:02;98724.88;;;21.97;58.49
25947;BME280;13745;51.470;9.894;2023-07-02T12:59:47;98733.09;;;21.93;58.32
25947;BME280;13745;51.470;9.894;2023-07-02T13:02:32;98729.84;;;21.89;58.47
25947;BME280;13745;51.470;9.894;2023-07-02T13:05:18;98728.78;;;21.92;58.94
25947;BME280;13745;51.470;9.894;2023-07-02T13:08:03;98725.94;;;21.95;58.56
25947;BME280;13745;51.470;9.894;2023-07-02T13:10:49;98728.13;;;22.01;58.54
25947;BME280;13745;51.470;9.894;2023-07-02T13:13:35;98731.63;;;22.01;58.93
25947;BME280;13745;51.470;9.894;2023-07-02T13:16:21;98735.53;;;21.96;59.08
25947;BME280;13745;51.470;9.894;2023-07-02T13:19:08;98741.25;;;21.90;58.59
25947;BME280;13745;51.470;9.894;2023-07-02T13:21:53;98739.66;;;21.74;59.45
25947;BME280;13745;51.470;9.894;2023-07-02T13:24:38;98745.59;;;21.65;59.47
25947;BME280;13745;51.470;9.894;2023-07-02T13:27:24;98739.56;;;21.63;59.93
25947;BME280;13745;51.470;9.894;2023-07-02T13:30:10;98748.97;;;21.54;59.48
25947;BME280;13745;51.470;9.894;2023-07-02T13:32:56;98752.66;;;21.39;59.63
25947;BME280;13745;51.470;9.894;2023-07-02T13:35:41;98743.47;;;21.45;59.66
25947;BME280;13745;51.470;9.894;2023-07-02T13:38:27;98740.31;;;21.52;59.67
25947;BME280;13745;51.470;9.894;2023-07-02T13:41:12;98751.28;;;21.59;59.36
25947;BME280;13745;51.470;9.894;2023-07-02T13:43:57;98749.41;;;21.61;59.21
25947;BME280;13745;51.470;9.894;2023-07-02T13:46:44;98744.00;;;21.63;59.23
25947;BME280;13745;51.470;9.894;2023-07-02T13:49:31;98745.16;;;21.71;59.03
25947;BME280;13745;51.470;9.894;2023-07-02T13:52:17;98743.16;;;21.87;59.49
25947;BME280;13745;51.470;9.894;2023-07-02T13:55:02;98732.88;;;22.08;58.74
25947;BME280;13745;51.470;9.894;2023-07-02T13:57:47;98734.13;;;22.28;59.06
25947;BME280;13745;51.470;9.894;2023-07-02T14:00:33;98731.25;;;22.31;58.98
25947;BME280;13745;51.470;9.894;2023-07-02T14:03:18;98733.53;;;22.12;59.22
25947;BME280;13745;51.470;9.894;2023-07-02T14:06:03;98745.88;;;21.99;58.94
25947;BME280;13745;51.470;9.894;2023-07-02T14:08:48;98742.38;;;21.98;59.26
25947;BME280;13745;51.470;9.894;2023-07-02T14:11:35;98750.19;;;22.00;59.52
25947;BME280;13745;51.470;9.894;2023-07-02T14:14:20;98740.59;;;21.99;59.29
25947;BME280;13745;51.470;9.894;2023-07-02T14:17:07;98746.09;;;21.96;59.46
25947;BME280;13745;51.470;9.894;2023-07-02T14:19:52;98739.22;;;22.06;59.61
25947;BME280;13745;51.470;9.894;2023-07-02T14:22:37;98739.72;;;22.24;59.35
25947;BME280;13745;51.470;9.894;2023-07-02T14:25:22;98736.41;;;22.33;59.38
25947;BME280;13745;51.470;9.894;2023-07-02T14:28:07;98733.50;;;22.25;59.18
25947;BME280;13745;51.470;9.894;2023-07-02T14:30:56;98737.13;;;22.11;59.48
25947;BME280;13745;51.470;9.894;2023-07-02T14:33:43;98748.63;;;21.97;59.88
25947;BME280;13745;51.470;9.894;2023-07-02T14:36:28;98745.97;;;21.84;59.79
25947;BME280;13745;51.470;9.894;2023-07-02T14:39:13;98750.66;;;21.81;59.87